createdAt,value
2022-08-23T00:02:06.896Z,100330.00
2022-08-23T00:04:53.234Z,100332.00
2022-08-23T00:07:34.147Z,100336.00
2022-08-23T00:10:05.990Z,100347.00
2022-08-23T00:12:34.110Z,100346.00
2022-08-23T00:15:02.411Z,100350.00
2022-08-23T00:17:34.260Z,100343.00
2022-08-23T00:20:11.471Z,100326.00
2022-08-23T00:22:43.132Z,100333.00
2022-08-23T00:25:12.906Z,100330.00
2022-08-23T00:27:41.559Z,100317.00
2022-08-23T00:30:12.544Z,100320.00
2022-08-23T00:32:41.790Z,100318.00
2022-08-23T00:35:12.934Z,100312.00
2022-08-23T00:38:31.901Z,100314.00
2022-08-23T00:40:45.309Z,100315.00
2022-08-23T00:43:34.558Z,100313.00
2022-08-23T00:46:31.481Z,100316.00
2022-08-23T00:48:59.989Z,100306.00
2022-08-23T00:51:32.854Z,100299.00
2022-08-23T00:54:16.115Z,100296.00
2022-08-23T00:56:45.127Z,100289.00
2022-08-23T00:59:13.478Z,100285.00
2022-08-23T01:01:43.757Z,100293.00
2022-08-23T01:04:13.176Z,100287.00
2022-08-23T01:06:47.137Z,100290.00
2022-08-23T01:09:18.703Z,100297.00
2022-08-23T01:11:52.743Z,100306.00
2022-08-23T01:14:32.148Z,100311.00
2022-08-23T01:17:13.299Z,100309.00
2022-08-23T01:19:52.826Z,100313.00
2022-08-23T01:22:35.804Z,100305.00
2022-08-23T01:25:08.898Z,100306.00
2022-08-23T01:27:46.654Z,100314.00
2022-08-23T01:30:22.914Z,100312.00
2022-08-23T01:33:02.092Z,100308.00
2022-08-23T01:35:46.130Z,100317.00
2022-08-23T01:38:15.436Z,100321.00
2022-08-23T01:40:45.182Z,100322.00
2022-08-23T01:43:14.552Z,100325.00
2022-08-23T01:45:43.356Z,100319.00
2022-08-23T01:48:13.793Z,100333.00
2022-08-23T01:50:41.862Z,100334.00
2022-08-23T01:53:09.828Z,100334.00
2022-08-23T01:55:41.637Z,100323.00
2022-08-23T01:58:09.871Z,100323.00
2022-08-23T02:00:41.699Z,100317.00
2022-08-23T02:03:10.711Z,100316.00
2022-08-23T02:05:40.674Z,100324.00
2022-08-23T02:08:29.172Z,100317.00
2022-08-23T02:10:58.554Z,100314.00
2022-08-23T02:13:27.503Z,100315.00
2022-08-23T02:15:58.627Z,100310.00
2022-08-23T02:18:26.982Z,100318.00
2022-08-23T02:20:54.802Z,100318.00
2022-08-23T02:23:23.500Z,100314.00
2022-08-23T02:25:52.387Z,100315.00
2022-08-23T02:28:25.514Z,100318.00
2022-08-23T02:30:54.154Z,100319.00
2022-08-23T02:33:22.420Z,100326.00
2022-08-23T02:35:50.311Z,100333.00
2022-08-23T02:38:18.905Z,100336.00
2022-08-23T02:40:52.981Z,100339.00
2022-08-23T02:43:30.389Z,100345.00
2022-08-23T02:45:58.225Z,100347.00
2022-08-23T02:48:26.447Z,100341.00
2022-08-23T02:51:08.487Z,100340.00
2022-08-23T02:53:36.714Z,100334.00
2022-08-23T02:56:17.071Z,100336.00
2022-08-23T02:58:53.996Z,100341.00
2022-08-23T03:01:31.054Z,100334.00
2022-08-23T03:04:10.734Z,100344.00
2022-08-23T03:06:39.510Z,100343.00
2022-08-23T03:09:08.614Z,100344.00
2022-08-23T03:11:37.485Z,100345.00
2022-08-23T03:14:05.682Z,100347.00
2022-08-23T03:16:33.916Z,100352.00
2022-08-23T03:19:02.557Z,100342.00
2022-08-23T03:21:32.480Z,100347.00
2022-08-23T03:24:01.042Z,100349.00
2022-08-23T03:26:29.747Z,100350.00
2022-08-23T03:28:57.853Z,100351.00
2022-08-23T03:31:33.559Z,100360.00
2022-08-23T03:34:07.170Z,100361.00
2022-08-23T03:36:35.614Z,100363.00
2022-08-23T03:39:06.460Z,100366.00
2022-08-23T03:41:34.748Z,100363.00
2022-08-23T03:44:02.620Z,100364.00
2022-08-23T03:46:34.301Z,100364.00
2022-08-23T03:49:05.236Z,100372.00
2022-08-23T03:51:46.982Z,100369.00
2022-08-23T03:54:14.806Z,100373.00
2022-08-23T03:57:04.770Z,100372.00
2022-08-23T03:59:36.341Z,100373.00
2022-08-23T04:02:08.209Z,100365.00
2022-08-23T04:04:37.003Z,100376.00
2022-08-23T04:07:31.605Z,100372.00
2022-08-23T04:09:59.838Z,100375.00
2022-08-23T04:12:33.137Z,100371.00
2022-08-23T04:15:02.663Z,100370.00
2022-08-23T04:17:34.107Z,100368.00
2022-08-23T04:20:03.672Z,100366.00
2022-08-23T04:22:33.761Z,100371.00
2022-08-23T04:25:03.587Z,100366.00
2022-08-23T04:27:32.855Z,100366.00
2022-08-23T04:30:01.132Z,100371.00
2022-08-23T04:32:30.671Z,100370.00
2022-08-23T04:35:02.905Z,100370.00
2022-08-23T04:37:31.790Z,100367.00
2022-08-23T04:40:18.525Z,100370.00
2022-08-23T04:42:46.565Z,100373.00
2022-08-23T04:45:14.515Z,100378.00
2022-08-23T04:47:46.264Z,100376.00
2022-08-23T04:50:14.991Z,100390.00
2022-08-23T04:53:01.306Z,100387.00
2022-08-23T04:55:32.316Z,100387.00
2022-08-23T04:58:08.331Z,100390.00
2022-08-23T05:00:48.145Z,100393.00
2022-08-23T05:03:22.069Z,100397.00
2022-08-23T05:05:51.294Z,100388.00
2022-08-23T05:08:21.494Z,100391.00
2022-08-23T05:10:49.735Z,100404.00
2022-08-23T05:13:18.237Z,100413.00
2022-08-23T05:15:46.816Z,100419.00
2022-08-23T05:18:15.214Z,100409.00
2022-08-23T05:20:43.061Z,100414.00
2022-08-23T05:23:11.125Z,100418.00
2022-08-23T05:25:53.414Z,100421.00
2022-08-23T05:28:35.703Z,100420.00
2022-08-23T05:31:11.620Z,100417.00
2022-08-23T05:34:03.195Z,100417.00
2022-08-23T05:36:48.344Z,100425.00
2022-08-23T05:39:35.913Z,100417.00
2022-08-23T05:42:10.555Z,100430.00
2022-08-23T05:44:39.051Z,100430.00
2022-08-23T05:47:11.754Z,100430.00
2022-08-23T05:49:58.390Z,100434.00
2022-08-23T05:52:28.045Z,100432.00
2022-08-23T05:54:55.936Z,100438.00
2022-08-23T05:57:47.394Z,100441.00
2022-08-23T06:00:15.813Z,100441.00
2022-08-23T06:02:52.498Z,100437.00
2022-08-23T06:05:21.510Z,100440.00
2022-08-23T06:07:50.912Z,100459.00
2022-08-23T06:10:21.718Z,100449.00
2022-08-23T06:12:56.019Z,100449.00
2022-08-23T06:15:23.963Z,100451.00
2022-08-23T06:17:51.889Z,100449.00
2022-08-23T06:20:20.003Z,100454.00
2022-08-23T06:23:03.017Z,100454.00
2022-08-23T06:25:32.637Z,100457.00
2022-08-23T06:28:14.340Z,100461.00
2022-08-23T06:30:45.356Z,100463.00
2022-08-23T06:33:24.686Z,100465.00
2022-08-23T06:36:07.473Z,100462.00
2022-08-23T06:38:53.161Z,100460.00
2022-08-23T06:41:39.943Z,100467.00
2022-08-23T06:44:27.114Z,100467.00
2022-08-23T06:47:05.662Z,100464.00
2022-08-23T06:49:35.661Z,100463.00
2022-08-23T06:52:04.737Z,100471.00
2022-08-23T06:54:57.937Z,100467.00
2022-08-23T06:57:51.535Z,100465.00
2022-08-23T07:00:22.757Z,100461.00
2022-08-23T07:03:17.326Z,100465.00
2022-08-23T07:06:20.378Z,100461.00
2022-08-23T07:08:48.246Z,100468.00
2022-08-23T07:11:16.349Z,100463.00
2022-08-23T07:13:44.790Z,100468.00
2022-08-23T07:16:12.866Z,100470.00
2022-08-23T07:18:40.741Z,100463.00
2022-08-23T07:21:09.195Z,100470.00
2022-08-23T07:23:41.308Z,100471.00
2022-08-23T07:26:13.842Z,100475.00
2022-08-23T07:28:42.615Z,100479.00
2022-08-23T07:31:32.877Z,100474.00
2022-08-23T07:34:03.251Z,100473.00
2022-08-23T07:36:37.994Z,100476.00
2022-08-23T07:39:09.155Z,100483.00
2022-08-23T07:41:38.993Z,100480.00
2022-08-23T07:44:11.216Z,100478.00
2022-08-23T07:46:43.482Z,100486.00
2022-08-23T07:49:13.012Z,100485.00
2022-08-23T07:51:50.918Z,100483.00
2022-08-23T07:54:22.500Z,100478.00
2022-08-23T07:57:03.296Z,100486.00
2022-08-23T07:59:50.038Z,100489.00
2022-08-23T08:02:36.852Z,100489.00
2022-08-23T08:05:06.209Z,100481.00
2022-08-23T08:07:37.653Z,100479.00
2022-08-23T08:10:06.642Z,100476.00
2022-08-23T08:12:35.047Z,100486.00
2022-08-23T08:15:12.114Z,100490.00
2022-08-23T08:17:41.311Z,100484.00
2022-08-23T08:20:37.069Z,100482.00
2022-08-23T08:23:24.815Z,100484.00
2022-08-23T08:26:18.166Z,100495.00
2022-08-23T08:28:56.669Z,100499.00
2022-08-23T08:31:27.638Z,100503.00
2022-08-23T08:34:03.925Z,100494.00
2022-08-23T08:36:38.645Z,100495.00
2022-08-23T08:39:14.382Z,100498.00
2022-08-23T08:42:04.165Z,100496.00
2022-08-23T08:44:53.274Z,100506.00
2022-08-23T08:47:40.668Z,100501.00
2022-08-23T08:50:29.841Z,100495.00
2022-08-23T08:53:10.773Z,100500.00
2022-08-23T08:56:32.128Z,100494.00
2022-08-23T08:59:30.397Z,100497.00
2022-08-23T09:01:59.601Z,100486.00
2022-08-23T09:04:33.574Z,100487.00
2022-08-23T09:07:30.537Z,100490.00
2022-08-23T09:10:06.929Z,100496.00
2022-08-23T09:12:46.775Z,100490.00
2022-08-23T09:15:29.233Z,100486.00
2022-08-23T09:18:04.356Z,100479.00
2022-08-23T09:20:34.663Z,100482.00
2022-08-23T09:23:27.065Z,100482.00
2022-08-23T09:26:03.563Z,100478.00
2022-08-23T09:28:38.477Z,100484.00
2022-08-23T09:31:08.842Z,100483.00
2022-08-23T09:33:44.447Z,100481.00
2022-08-23T09:36:29.009Z,100482.00
2022-08-23T09:39:22.772Z,100482.00
2022-08-23T09:42:01.574Z,100478.00
2022-08-23T09:44:37.271Z,100480.00
2022-08-23T09:47:07.250Z,100476.00
2022-08-23T09:49:40.960Z,100477.00
2022-08-23T09:52:34.722Z,100472.00
2022-08-23T09:55:35.521Z,100471.00
2022-08-23T09:58:16.233Z,100472.00
2022-08-23T10:00:47.683Z,100468.00
2022-08-23T10:03:29.429Z,100463.00
2022-08-23T10:06:15.947Z,100466.00
2022-08-23T10:08:56.680Z,100469.00
2022-08-23T10:11:45.421Z,100476.00
2022-08-23T10:14:16.454Z,100471.00
2022-08-23T10:17:10.989Z,100469.00
2022-08-23T10:20:13.754Z,100458.00
2022-08-23T10:22:51.042Z,100459.00
2022-08-23T10:25:58.570Z,100459.00
2022-08-23T10:29:12.911Z,100452.00
2022-08-23T10:31:59.467Z,100457.00
2022-08-23T10:34:35.504Z,100465.00
2022-08-23T10:37:22.019Z,100464.00
2022-08-23T10:40:16.432Z,100462.00
2022-08-23T10:42:54.324Z,100449.00
2022-08-23T10:45:35.882Z,100454.00
2022-08-23T10:48:28.794Z,100462.00
2022-08-23T10:51:31.494Z,100458.00
2022-08-23T10:54:16.477Z,100447.00
2022-08-23T10:56:51.273Z,100454.00
2022-08-23T10:59:24.625Z,100461.00
2022-08-23T11:02:10.721Z,100455.00
2022-08-23T11:04:43.737Z,100449.00
2022-08-23T11:07:44.500Z,100440.00
2022-08-23T11:10:33.791Z,100449.00
2022-08-23T11:13:16.035Z,100453.00
2022-08-23T11:15:54.802Z,100449.00
2022-08-23T11:18:37.781Z,100453.00
2022-08-23T11:21:18.142Z,100449.00
2022-08-23T11:23:59.008Z,100465.00
2022-08-23T11:26:36.474Z,100445.00
2022-08-23T11:29:07.573Z,100446.00
2022-08-23T11:31:45.340Z,100449.00
2022-08-23T11:34:29.469Z,100450.00
2022-08-23T11:37:23.383Z,100443.00
2022-08-23T11:40:03.352Z,100444.00
2022-08-23T11:42:47.915Z,100442.00
2022-08-23T11:45:24.771Z,100437.00
2022-08-23T11:48:27.807Z,100432.00
2022-08-23T11:51:16.325Z,100437.00
2022-08-23T11:53:53.003Z,100432.00
2022-08-23T11:57:05.295Z,100427.00
2022-08-23T11:59:56.359Z,100421.00
2022-08-23T12:02:35.623Z,100429.00
2022-08-23T12:05:11.739Z,100427.00
2022-08-23T12:07:55.947Z,100425.00
2022-08-23T12:10:56.666Z,100428.00
2022-08-23T12:13:24.499Z,100424.00
2022-08-23T12:16:28.871Z,100426.00
2022-08-23T12:19:01.236Z,100423.00
2022-08-23T12:21:41.913Z,100428.00
2022-08-23T12:24:33.499Z,100426.00
2022-08-23T12:27:30.667Z,100425.00
2022-08-23T12:30:05.142Z,100426.00
2022-08-23T12:32:57.866Z,100423.00
2022-08-23T12:35:35.020Z,100420.00
2022-08-23T12:38:32.967Z,100413.00
2022-08-23T12:41:21.078Z,100414.00
2022-08-23T12:44:10.090Z,100421.00
2022-08-23T12:46:39.821Z,100425.00
2022-08-23T12:49:13.279Z,100424.00
2022-08-23T12:51:48.892Z,100417.00
2022-08-23T12:54:20.411Z,100412.00
2022-08-23T12:56:56.281Z,100420.00
2022-08-23T12:59:48.306Z,100420.00
2022-08-23T13:02:28.764Z,100418.00
2022-08-23T13:05:01.835Z,100415.00
2022-08-23T13:07:30.122Z,100421.00
2022-08-23T13:09:58.165Z,100410.00
2022-08-23T13:12:27.298Z,100410.00
2022-08-23T13:14:55.949Z,100405.00
2022-08-23T13:17:36.824Z,100400.00
2022-08-23T13:20:08.022Z,100404.00
2022-08-23T13:22:39.311Z,100409.00
2022-08-23T13:25:32.115Z,100405.00
2022-08-23T13:28:07.727Z,100395.00
2022-08-23T13:30:38.247Z,100398.00
2022-08-23T13:33:09.146Z,100402.00
2022-08-23T13:35:47.411Z,100402.00
2022-08-23T13:38:24.435Z,100402.00
2022-08-23T13:41:06.098Z,100403.00
2022-08-23T13:43:51.186Z,100402.00
2022-08-23T13:46:42.182Z,100393.00
2022-08-23T13:49:28.661Z,100399.00
2022-08-23T13:52:33.254Z,100404.00
2022-08-23T13:54:52.784Z,100407.00
2022-08-23T13:57:21.563Z,100396.00
2022-08-23T13:59:55.880Z,100397.00
2022-08-23T14:02:24.958Z,100392.00
2022-08-23T14:04:53.115Z,100397.00
2022-08-23T14:07:21.596Z,100395.00
2022-08-23T14:09:54.433Z,100392.00
2022-08-23T14:12:25.072Z,100393.00
2022-08-23T14:14:57.348Z,100392.00
2022-08-23T14:17:25.641Z,100392.00
2022-08-23T14:20:31.885Z,100384.00
2022-08-23T14:22:41.647Z,100386.00
2022-08-23T14:25:11.161Z,100380.00
2022-08-23T14:27:44.875Z,100383.00
2022-08-23T14:30:29.367Z,100384.00
2022-08-23T14:33:07.733Z,100382.00
2022-08-23T14:35:35.902Z,100373.00
2022-08-23T14:38:04.902Z,100383.00
2022-08-23T14:40:33.641Z,100380.00
2022-08-23T14:43:02.441Z,100376.00
2022-08-23T14:45:32.346Z,100375.00
2022-08-23T14:48:01.038Z,100374.00
2022-08-23T14:50:28.961Z,100374.00
2022-08-23T14:52:57.334Z,100377.00
2022-08-23T14:55:25.502Z,100367.00
2022-08-23T14:57:53.516Z,100367.00
2022-08-23T15:00:21.613Z,100370.00
2022-08-23T15:02:50.371Z,100373.00
2022-08-23T15:05:18.401Z,100365.00
2022-08-23T15:07:46.866Z,100372.00
2022-08-23T15:13:28.348Z,100363.00
2022-08-23T15:15:57.077Z,100361.00
2022-08-23T15:18:25.572Z,100361.00
2022-08-23T15:20:53.993Z,100368.00
2022-08-23T15:23:21.889Z,100363.00
2022-08-23T15:25:50.137Z,100366.00
2022-08-23T15:28:20.282Z,100368.00
2022-08-23T15:30:49.110Z,100366.00
2022-08-23T15:33:17.719Z,100363.00
2022-08-23T15:35:54.697Z,100365.00
2022-08-23T15:38:26.331Z,100363.00
2022-08-23T15:40:55.100Z,100367.00
2022-08-23T15:43:24.796Z,100369.00
2022-08-23T16:15:01.098Z,100370.00
2022-08-23T16:17:29.083Z,100370.00
2022-08-23T16:19:57.148Z,100369.00
2022-08-23T16:22:25.575Z,100362.00
2022-08-23T16:24:54.726Z,100362.00
2022-08-23T16:27:23.888Z,100367.00
2022-08-23T16:29:51.967Z,100363.00
2022-08-23T16:32:21.703Z,100367.00
2022-08-23T16:34:49.645Z,100371.00
2022-08-23T16:37:19.323Z,100371.00
2022-08-23T16:39:47.715Z,100362.00
2022-08-23T16:42:16.054Z,100368.00
2022-08-23T16:44:44.042Z,100370.00
2022-08-23T16:47:15.789Z,100375.00
2022-08-23T16:49:43.886Z,100373.00
2022-08-23T16:52:12.412Z,100379.00
2022-08-23T16:54:40.884Z,100383.00
2022-08-23T16:57:08.673Z,100377.00
2022-08-23T16:59:40.387Z,100380.00
2022-08-23T17:02:32.473Z,100383.00
2022-08-23T17:05:00.891Z,100383.00
2022-08-23T17:07:28.840Z,100384.00
2022-08-23T17:09:56.915Z,100387.00
2022-08-23T17:12:25.245Z,100383.00
2022-08-23T17:14:57.657Z,100385.00
2022-08-23T17:17:25.655Z,100388.00
2022-08-23T17:19:53.882Z,100387.00
2022-08-23T17:22:21.868Z,100389.00
2022-08-23T17:24:49.909Z,100395.00
2022-08-23T17:27:21.506Z,100394.00
2022-08-23T17:29:49.450Z,100402.00
2022-08-23T17:32:19.486Z,100395.00
2022-08-23T17:34:47.590Z,100402.00
2022-08-23T17:37:17.965Z,100401.00
2022-08-23T17:39:46.765Z,100399.00
2022-08-23T17:42:16.025Z,100410.00
2022-08-23T17:44:44.335Z,100410.00
2022-08-23T17:47:18.360Z,100410.00
2022-08-23T17:49:49.321Z,100407.00
2022-08-23T17:52:18.070Z,100414.00
2022-08-23T17:54:46.059Z,100417.00
2022-08-23T17:57:13.913Z,100418.00
2022-08-23T17:59:45.670Z,100427.00
2022-08-23T18:02:14.040Z,100421.00
2022-08-23T18:04:42.722Z,100425.00
2022-08-23T18:07:10.707Z,100427.00
2022-08-23T18:09:41.652Z,100423.00
2022-08-23T18:12:16.415Z,100428.00
2022-08-23T18:14:44.847Z,100424.00
2022-08-23T18:17:13.136Z,100433.00
2022-08-23T18:19:41.357Z,100438.00
2022-08-23T18:22:09.585Z,100440.00
2022-08-23T18:24:37.856Z,100440.00
2022-08-23T18:27:24.490Z,100441.00
2022-08-23T18:29:52.555Z,100446.00
2022-08-23T18:32:20.859Z,100443.00
2022-08-23T18:34:48.625Z,100444.00
2022-08-23T18:37:21.904Z,100450.00
2022-08-23T18:39:50.454Z,100455.00
2022-08-23T18:42:18.657Z,100451.00
2022-08-23T18:44:46.909Z,100454.00
2022-08-23T18:47:14.860Z,100458.00
2022-08-23T18:49:42.817Z,100465.00
2022-08-23T18:52:10.968Z,100473.00
2022-08-23T18:54:38.780Z,100468.00
2022-08-23T18:57:06.646Z,100479.00
2022-08-23T18:59:34.411Z,100475.00
2022-08-23T19:02:02.345Z,100478.00
2022-08-23T19:04:30.552Z,100485.00
2022-08-23T19:06:59.388Z,100485.00
2022-08-23T19:09:27.351Z,100488.00
2022-08-23T19:11:55.277Z,100487.00
2022-08-23T19:14:23.146Z,100490.00
2022-08-23T19:16:51.052Z,100494.00
2022-08-23T19:19:19.008Z,100493.00
2022-08-23T19:21:46.927Z,100499.00
2022-08-23T19:24:16.521Z,100500.00
2022-08-23T19:26:47.829Z,100508.00
2022-08-23T19:29:16.375Z,100511.00
2022-08-23T19:31:48.077Z,100513.00
2022-08-23T19:34:18.273Z,100517.00
2022-08-23T19:43:07.574Z,100525.00
2022-08-23T19:45:35.719Z,100522.00
2022-08-23T19:48:04.061Z,100528.00
2022-08-23T19:50:32.800Z,100528.00
2022-08-23T19:53:01.062Z,100530.00
2022-08-23T19:55:32.219Z,100536.00
2022-08-23T19:58:00.249Z,100536.00
2022-08-23T20:00:31.757Z,100531.00
2022-08-23T20:02:59.850Z,100534.00
2022-08-23T20:05:27.851Z,100547.00
2022-08-23T20:07:55.905Z,100539.00
2022-08-23T20:10:23.846Z,100535.00
2022-08-23T20:12:51.753Z,100545.00
2022-08-23T20:15:19.677Z,100546.00
2022-08-23T20:17:47.405Z,100545.00
2022-08-23T20:20:15.408Z,100551.00
2022-08-23T20:23:02.456Z,100547.00
2022-08-23T20:25:30.992Z,100537.00
2022-08-23T20:27:59.573Z,100545.00
2022-08-23T20:30:27.678Z,100544.00
2022-08-23T20:32:55.652Z,100552.00
2022-08-23T20:35:23.896Z,100548.00
2022-08-23T20:37:52.028Z,100555.00
2022-08-23T20:40:20.751Z,100540.00
2022-08-23T20:42:48.710Z,100551.00
2022-08-23T20:45:16.493Z,100545.00
2022-08-23T20:47:44.368Z,100551.00
2022-08-23T20:50:12.453Z,100552.00
2022-08-23T20:52:40.440Z,100551.00
2022-08-23T20:55:10.724Z,100543.00
2022-08-23T20:57:41.741Z,100546.00
2022-08-23T21:00:10.156Z,100544.00
2022-08-23T21:02:38.042Z,100543.00
2022-08-23T21:05:06.607Z,100540.00
2022-08-23T21:07:35.049Z,100537.00
2022-08-23T21:10:05.347Z,100542.00
2022-08-23T21:12:33.416Z,100546.00
2022-08-23T21:15:01.216Z,100547.00
2022-08-23T21:17:29.128Z,100552.00
2022-08-23T21:19:57.073Z,100554.00
2022-08-23T21:22:32.285Z,100561.00
2022-08-23T21:25:00.138Z,100555.00
2022-08-23T21:27:28.496Z,100560.00
2022-08-23T21:29:56.401Z,100556.00
2022-08-23T21:32:24.640Z,100562.00
2022-08-23T21:34:52.756Z,100564.00
2022-08-23T21:37:20.652Z,100555.00
2022-08-23T21:39:48.533Z,100558.00
2022-08-23T21:42:18.733Z,100559.00
2022-08-23T21:44:48.592Z,100553.00
2022-08-23T21:47:16.496Z,100558.00
2022-08-23T21:49:44.443Z,100561.00
2022-08-23T21:52:12.330Z,100560.00
2022-08-23T21:54:43.548Z,100548.00
2022-08-23T21:57:12.143Z,100548.00
2022-08-23T21:59:40.362Z,100549.00
2022-08-23T22:02:08.303Z,100553.00
2022-08-23T22:04:36.294Z,100553.00
2022-08-23T22:07:04.256Z,100552.00
2022-08-23T22:09:38.158Z,100551.00
2022-08-23T22:12:06.857Z,100556.00
2022-08-23T22:14:35.990Z,100563.00
2022-08-23T22:17:03.972Z,100560.00
2022-08-23T22:19:32.180Z,100560.00
2022-08-23T22:21:59.982Z,100563.00
2022-08-23T22:24:27.840Z,100559.00
2022-08-23T22:26:56.541Z,100561.00
2022-08-23T22:29:25.248Z,100553.00
2022-08-23T22:31:53.113Z,100563.00
2022-08-23T22:34:21.178Z,100556.00
2022-08-23T22:36:52.482Z,100551.00
2022-08-23T22:39:21.599Z,100557.00
2022-08-23T22:41:50.253Z,100555.00
2022-08-23T22:44:18.616Z,100559.00
2022-08-23T22:46:46.589Z,100555.00
2022-08-23T22:49:14.909Z,100556.00
2022-08-23T22:51:44.130Z,100553.00
2022-08-23T22:54:12.902Z,100553.00
2022-08-23T22:56:48.172Z,100560.00
2022-08-23T22:59:18.161Z,100558.00
2022-08-23T23:01:53.456Z,100559.00
2022-08-23T23:04:25.511Z,100556.00
2022-08-23T23:06:55.298Z,100555.00
2022-08-23T23:09:23.271Z,100550.00
2022-08-23T23:11:53.259Z,100557.00
2022-08-23T23:14:22.003Z,100551.00
2022-08-23T23:16:50.473Z,100546.00
2022-08-23T23:19:37.538Z,100541.00
2022-08-23T23:22:06.998Z,100549.00
2022-08-23T23:24:37.907Z,100545.00
2022-08-23T23:27:07.248Z,100542.00
2022-08-23T23:29:35.770Z,100551.00
2022-08-23T23:32:04.368Z,100550.00
2022-08-23T23:34:32.443Z,100547.00
2022-08-23T23:37:00.510Z,100540.00
2022-08-23T23:39:28.991Z,100545.00
2022-08-23T23:41:57.537Z,100541.00
2022-08-23T23:44:30.801Z,100538.00
2022-08-23T23:47:01.606Z,100544.00
2022-08-23T23:49:32.905Z,100545.00
2022-08-23T23:52:03.542Z,100553.00
2022-08-23T23:54:32.272Z,100547.00
2022-08-23T23:57:43.681Z,100548.00
